Time;durP1;ratioP1;P1;durP2;ratioP2;P2;SDS_P1;SDS_P2;PMS_P1;PMS_P2;Temp;Humidity;BMP_temperature;BMP_pressure;BME280_temperature;BME280_humidity;BME280_pressure;Samples;Min_cycle;Max_cycle;Signal;HPM_P1;HPM_P2
2022/05/12 17:42:21;;;;;;;8.13;1.52;;;23.00;34.80;;;;;;5055291;28;20434;-65
2022/05/12 17:44:47;;;;;;;7.40;0.93;;;22.40;35.50;;;;;;5052639;28;20554;-65
2022/05/12 17:47:13;;;;;;;6.35;1.15;;;22.40;35.40;;;;;;5057215;28;20131;-65
2022/05/12 17:49:44;;;;;;;8.55;1.27;;;22.40;34.30;;;;;;5047104;28;20072;-67
2022/05/12 17:52:12;;;;;;;6.78;1.20;;;22.40;33.90;;;;;;5053911;28;20024;-66
2022/05/12 17:54:38;;;;;;;8.68;1.10;;;22.30;33.70;;;;;;5048967;28;20033;-67
2022/05/12 17:57:05;;;;;;;11.38;1.17;;;22.20;33.80;;;;;;5049987;28;20588;-68
2022/05/12 17:59:31;;;;;;;10.45;1.50;;;22.20;33.60;;;;;;5052131;28;20039;-68
2022/05/12 18:01:57;;;;;;;8.02;1.33;;;22.20;33.40;;;;;;5060066;28;20115;-68
2022/05/12 18:04:23;;;;;;;6.65;1.10;;;22.00;33.80;;;;;;5049074;28;20121;-66
2022/05/12 18:06:49;;;;;;;6.10;1.00;;;22.00;34.20;;;;;;5049684;28;20087;-67
2022/05/12 18:09:15;;;;;;;10.52;1.50;;;22.10;33.70;;;;;;5058539;28;20492;-66
2022/05/12 18:11:43;;;;;;;6.00;1.02;;;22.10;33.60;;;;;;5048985;28;20040;-68
2022/05/12 18:14:10;;;;;;;4.72;0.90;;;22.00;33.70;;;;;;5057160;28;20145;-68
2022/05/12 18:16:36;;;;;;;6.97;0.98;;;22.00;34.00;;;;;;5060829;28;20041;-65
2022/05/12 18:19:02;;;;;;;8.60;1.10;;;22.00;34.10;;;;;;5052525;28;20017;-67
2022/05/12 18:21:29;;;;;;;10.07;1.10;;;22.00;34.10;;;;;;5057374;28;20039;-67
2022/05/12 18:23:54;;;;;;;7.82;0.90;;;22.00;33.90;;;;;;5060841;28;20020;-67
2022/05/12 18:26:20;;;;;;;6.40;1.25;;;22.00;34.20;;;;;;5047007;28;20736;-66
2022/05/12 18:28:46;;;;;;;5.50;0.90;;;22.00;34.20;;;;;;5051394;28;20115;-67
2022/05/12 18:31:11;;;;;;;10.35;1.63;;;22.00;34.20;;;;;;5049251;28;20441;-67
2022/05/12 18:33:38;;;;;;;9.20;1.40;;;21.90;34.30;;;;;;5053308;28;20099;-66
2022/05/12 18:36:05;;;;;;;7.90;0.98;;;21.90;34.40;;;;;;5050171;28;20036;-66
2022/05/12 18:38:31;;;;;;;8.93;1.10;;;21.80;34.50;;;;;;5062392;28;20032;-67
2022/05/12 18:40:57;;;;;;;6.15;1.15;;;21.70;35.10;;;;;;5061562;28;20044;-67
2022/05/12 18:43:24;;;;;;;9.57;1.10;;;21.70;34.90;;;;;;5046716;28;20031;-67
2022/05/12 18:45:52;;;;;;;9.60;1.20;;;21.70;35.00;;;;;;5059817;28;20028;-67
2022/05/12 18:48:18;;;;;;;8.82;1.15;;;21.60;35.10;;;;;;5056458;28;20018;-67
2022/05/12 18:50:45;;;;;;;10.15;1.30;;;21.50;35.50;;;;;;5047963;28;20047;-67
2022/05/12 18:53:10;;;;;;;10.45;1.40;;;21.50;35.60;;;;;;5045996;28;20021;-67
2022/05/12 18:55:37;;;;;;;11.35;1.52;;;21.40;35.80;;;;;;5043079;28;20036;-67
2022/05/12 18:58:04;;;;;;;9.07;2.60;;;21.40;36.00;;;;;;5035968;28;20052;-67
2022/05/12 19:00:32;;;;;;;8.32;1.27;;;21.30;36.30;;;;;;5034786;28;20136;-67
2022/05/12 19:02:58;;;;;;;9.27;1.42;;;21.20;36.40;;;;;;5045768;28;20025;-66
2022/05/12 19:05:26;;;;;;;5.45;1.20;;;21.20;36.50;;;;;;5045791;28;20408;-67
2022/05/12 19:07:52;;;;;;;7.65;1.30;;;21.10;36.60;;;;;;5059457;28;20132;-66
2022/05/12 19:10:20;;;;;;;7.95;1.33;;;21.10;36.80;;;;;;5034706;28;20040;-66
2022/05/12 19:12:47;;;;;;;9.27;1.45;;;21.00;36.90;;;;;;5040447;28;20113;-66
2022/05/12 19:15:20;;;;;;;7.68;1.35;;;21.00;37.00;;;;;;5042652;28;20029;-67
2022/05/12 19:17:49;;;;;;;7.95;1.20;;;21.00;37.20;;;;;;5037464;28;20033;-66
2022/05/12 19:20:18;;;;;;;7.65;1.23;;;20.90;37.10;;;;;;5042473;28;20041;-65
2022/05/12 19:22:44;;;;;;;11.60;1.40;;;20.90;37.30;;;;;;5047046;28;20036;-68
2022/05/12 19:25:11;;;;;;;8.20;1.20;;;20.90;37.30;;;;;;5046476;28;20056;-69
2022/05/12 19:27:38;;;;;;;7.97;1.20;;;20.80;37.30;;;;;;5031246;28;20126;-67
2022/05/12 19:30:08;;;;;;;8.93;1.20;;;20.80;37.30;;;;;;5039700;28;20116;-67
2022/05/12 19:32:34;;;;;;;6.28;1.17;;;20.80;37.40;;;;;;5044944;28;20280;-67
2022/05/12 19:35:00;;;;;;;8.93;1.30;;;20.70;37.40;;;;;;5040453;28;20018;-67
2022/05/12 19:37:27;;;;;;;5.82;1.10;;;20.60;37.40;;;;;;5034942;28;20034;-67
2022/05/12 19:39:54;;;;;;;6.07;1.10;;;20.50;37.30;;;;;;5039782;28;20116;-67
2022/05/12 19:42:20;;;;;;;7.75;1.20;;;20.50;37.30;;;;;;5035107;28;20111;-67
2022/05/12 19:44:46;;;;;;;5.85;1.10;;;20.40;37.30;;;;;;5033767;28;20120;-67
2022/05/12 19:47:17;;;;;;;7.68;1.10;;;20.30;37.40;;;;;;5034651;28;20063;-67
2022/05/12 19:49:45;;;;;;;6.90;1.10;;;20.20;37.50;;;;;;5051400;28;20435;-66
2022/05/12 19:52:15;;;;;;;8.57;1.40;;;20.20;37.70;;;;;;5045469;28;20045;-67
2022/05/12 19:54:41;;;;;;;7.35;1.25;;;20.20;38.10;;;;;;5034456;28;20029;-67
2022/05/12 19:57:12;;;;;;;9.02;1.23;;;20.10;39.10;;;;;;5035432;28;20021;-67
2022/05/12 19:59:39;;;;;;;5.93;1.17;;;20.00;38.20;;;;;;5033971;28;20028;-67
2022/05/12 20:02:06;;;;;;;6.78;1.10;;;19.90;38.30;;;;;;5043307;28;20048;-67
2022/05/12 20:04:33;;;;;;;5.57;1.40;;;19.90;38.20;;;;;;5039860;28;20112;-67
2022/05/12 20:06:59;;;;;;;5.57;1.00;;;19.80;38.30;;;;;;5050042;28;20024;-67
2022/05/12 20:09:24;;;;;;;7.25;1.20;;;19.80;38.30;;;;;;5059573;28;20031;-67
2022/05/12 20:11:51;;;;;;;8.57;1.25;;;19.70;38.50;;;;;;5061470;28;20032;-67
2022/05/12 20:14:21;;;;;;;7.60;1.10;;;19.70;38.60;;;;;;5059368;28;20108;-67
2022/05/12 20:16:51;;;;;;;6.43;1.02;;;19.60;38.70;;;;;;5065500;28;20035;-67
2022/05/12 20:19:18;;;;;;;6.33;1.00;;;19.60;38.90;;;;;;5056023;28;20036;-67
2022/05/12 20:21:43;;;;;;;18.50;1.40;;;19.50;39.10;;;;;;5052481;28;20159;-67
2022/05/12 20:24:12;;;;;;;6.75;1.05;;;19.50;39.20;;;;;;5049470;28;20047;-67
2022/05/12 20:26:37;;;;;;;10.95;1.10;;;19.40;39.20;;;;;;5057409;28;20432;-67
2022/05/12 20:29:04;;;;;;;7.28;1.08;;;19.40;39.60;;;;;;5057125;28;20091;-67
2022/05/12 20:31:30;;;;;;;8.30;1.15;;;19.30;39.70;;;;;;5061286;28;20037;-67
2022/05/12 20:33:58;;;;;;;4.75;0.90;;;19.30;39.90;;;;;;5056951;28;20033;-67
2022/05/12 20:36:28;;;;;;;12.27;1.30;;;19.20;40.20;;;;;;5044818;28;20045;-67
2022/05/12 20:38:54;;;;;;;8.27;1.33;;;19.10;40.50;;;;;;5035924;28;20021;-67
2022/05/12 20:41:19;;;;;;;7.72;1.30;;;19.00;40.70;;;;;;5048413;28;20064;-67
2022/05/12 20:43:45;;;;;;;5.88;1.10;;;19.00;40.70;;;;;;5037970;28;20026;-67
2022/05/12 20:46:11;;;;;;;5.63;1.10;;;19.00;40.80;;;;;;5030713;28;20038;-67
2022/05/12 20:48:46;;;;;;;6.47;1.10;;;18.90;40.90;;;;;;5039384;28;20114;-67
2022/05/12 20:51:15;;;;;;;7.45;1.20;;;18.90;41.10;;;;;;5035645;28;20116;-68
2022/05/12 20:53:42;;;;;;;10.65;1.40;;;18.90;41.10;;;;;;5031314;28;20493;-67
2022/05/12 20:56:09;;;;;;;8.45;1.40;;;18.90;41.20;;;;;;5037646;28;20033;-68
2022/05/12 20:58:35;;;;;;;8.00;1.20;;;18.80;41.20;;;;;;5038757;28;20477;-67
2022/05/12 21:01:02;;;;;;;8.32;0.95;;;18.80;41.30;;;;;;5039373;28;20048;-67
2022/05/12 21:03:29;;;;;;;4.68;0.95;;;18.70;41.50;;;;;;5033556;28;20026;-67
2022/05/12 21:05:55;;;;;;;7.28;1.10;;;18.70;41.60;;;;;;5044589;28;20033;-67
2022/05/12 21:08:24;;;;;;;8.73;1.15;;;18.60;41.80;;;;;;5039122;28;20464;-67
2022/05/12 21:10:50;;;;;;;7.13;1.15;;;18.60;42.00;;;;;;5039997;28;20021;-67
2022/05/12 21:13:16;;;;;;;9.57;1.30;;;18.50;42.20;;;;;;5034923;28;20108;-67
2022/05/12 21:15:42;;;;;;;8.27;1.30;;;18.50;42.40;;;;;;5034337;28;20057;-67
2022/05/12 21:18:10;;;;;;;10.27;1.35;;;18.40;42.70;;;;;;5033481;28;20088;-67
2022/05/12 21:20:47;;;;;;;6.55;1.27;;;18.40;42.90;;;;;;5044727;28;20068;-67
2022/05/12 21:23:13;;;;;;;9.63;1.40;;;18.40;43.00;;;;;;5051491;28;20037;-67
2022/05/12 21:25:39;;;;;;;6.13;1.05;;;18.30;43.30;;;;;;5037656;28;20087;-67
2022/05/12 21:28:06;;;;;;;8.70;0.90;;;18.30;43.50;;;;;;5043191;28;20549;-67
2022/05/12 21:30:33;;;;;;;5.72;0.88;;;18.20;43.50;;;;;;5035549;28;20025;-67
2022/05/12 21:33:03;;;;;;;10.52;1.63;;;18.10;43.60;;;;;;5043517;28;20029;-68
2022/05/12 21:35:31;;;;;;;7.15;1.13;;;18.10;43.70;;;;;;5037466;28;20512;-67
2022/05/12 21:37:57;;;;;;;7.20;1.20;;;18.00;43.90;;;;;;5042960;28;20496;-67
2022/05/12 21:40:27;;;;;;;6.68;1.20;;;18.00;44.20;;;;;;5033327;28;20045;-68
2022/05/12 21:42:53;;;;;;;7.32;1.73;;;17.90;44.30;;;;;;5035547;28;20035;-67
2022/05/12 21:48:08;;;;;;;9.00;1.40;;;17.80;44.80;;;;;;5038456;28;20048;-67
2022/05/12 21:50:33;;;;;;;6.68;1.10;;;17.80;44.90;;;;;;5037422;28;20033;-68
2022/05/12 21:52:59;;;;;;;10.20;1.05;;;17.70;45.00;;;;;;5028955;28;20033;-68
2022/05/12 21:55:26;;;;;;;7.35;1.25;;;17.70;45.10;;;;;;5034441;28;20500;-68
2022/05/12 22:03:25;;;;;;;7.00;1.25;;;17.50;45.80;;;;;;5036779;28;20457;-68
2022/05/12 22:05:51;;;;;;;9.57;1.60;;;17.40;46.20;;;;;;5043164;28;20528;-68
2022/05/12 22:08:17;;;;;;;7.72;1.27;;;17.40;46.50;;;;;;5032307;28;20049;-68
2022/05/12 22:10:42;;;;;;;7.10;1.27;;;17.30;46.80;;;;;;5037071;28;20067;-68
2022/05/12 22:13:09;;;;;;;8.38;1.50;;;17.30;47.10;;;;;;5036734;28;20029;-67
2022/05/12 22:15:35;;;;;;;11.50;1.58;;;17.30;48.30;;;;;;5031892;28;20116;-68
2022/05/12 22:18:00;;;;;;;7.32;1.50;;;17.20;47.50;;;;;;5036835;28;20117;-67
2022/05/12 22:20:26;;;;;;;6.85;1.10;;;17.20;47.70;;;;;;5028684;28;20069;-68
2022/05/12 22:22:52;;;;;;;8.32;1.25;;;17.10;47.70;;;;;;5032604;28;20076;-68
2022/05/12 22:25:18;;;;;;;7.38;1.05;;;17.10;47.70;;;;;;5039826;28;20715;-68
2022/05/12 22:27:43;;;;;;;12.57;1.48;;;17.00;47.80;;;;;;5043885;28;20029;-67
2022/05/12 22:30:10;;;;;;;12.20;1.40;;;17.00;47.70;;;;;;5046129;28;20392;-68
2022/05/12 22:32:36;;;;;;;8.35;1.60;;;16.90;47.70;;;;;;5047130;28;20029;-68
2022/05/12 22:35:03;;;;;;;9.80;1.20;;;16.80;47.80;;;;;;5042802;28;20029;-68
2022/05/12 22:37:29;;;;;;;8.73;1.17;;;16.70;47.90;;;;;;5045767;28;20037;-67
2022/05/12 22:39:55;;;;;;;9.95;1.13;;;16.60;49.10;;;;;;5043866;28;20454;-67
2022/05/12 22:42:21;;;;;;;10.52;1.40;;;16.60;48.40;;;;;;5038496;28;20045;-67
2022/05/12 22:44:46;;;;;;;7.50;1.42;;;16.60;48.70;;;;;;5035434;28;20121;-68
2022/05/12 22:47:12;;;;;;;16.25;1.60;;;16.50;48.60;;;;;;5038662;28;20486;-68
2022/05/12 22:49:38;;;;;;;10.98;1.35;;;16.50;48.60;;;;;;5038080;28;20037;-67
2022/05/12 22:52:04;;;;;;;9.27;1.38;;;16.40;49.60;;;;;;5031342;28;20075;-68
2022/05/12 22:54:32;;;;;;;10.98;1.20;;;16.30;48.70;;;;;;5039946;28;20013;-68
2022/05/12 22:56:58;;;;;;;8.77;1.40;;;16.20;48.80;;;;;;5041545;28;20026;-68
2022/05/12 22:59:23;;;;;;;13.93;1.60;;;16.20;49.00;;;;;;5039183;28;20025;-67
2022/05/12 23:01:49;;;;;;;12.73;1.50;;;16.20;49.20;;;;;;5046481;28;20068;-67
2022/05/12 23:04:15;;;;;;;10.85;1.35;;;16.10;49.10;;;;;;5037815;28;20392;-68
2022/05/12 23:06:41;;;;;;;12.43;1.40;;;16.10;49.20;;;;;;5047330;28;20111;-67
2022/05/12 23:09:07;;;;;;;13.75;1.67;;;16.00;49.40;;;;;;5042604;28;20026;-67
2022/05/12 23:11:33;;;;;;;11.63;1.40;;;16.00;49.60;;;;;;5040563;28;20044;-68
2022/05/12 23:13:59;;;;;;;9.55;1.27;;;16.00;50.00;;;;;;5031574;28;20029;-68
2022/05/12 23:16:24;;;;;;;14.18;1.65;;;15.90;50.50;;;;;;5034444;28;20476;-67
2022/05/12 23:24:18;;;;;;;11.85;1.27;;;15.80;52.00;;;;;;5036761;28;20408;-68
2022/05/12 23:26:44;;;;;;;9.07;1.95;;;15.80;52.40;;;;;;5042940;28;20500;-68
2022/05/12 23:29:10;;;;;;;7.82;1.42;;;15.80;52.30;;;;;;5034556;28;20021;-68
2022/05/12 23:31:37;;;;;;;9.88;1.40;;;15.80;52.30;;;;;;5043513;28;20025;-68
2022/05/12 23:34:04;;;;;;;7.13;1.15;;;15.80;52.40;;;;;;5038510;28;20040;-68
2022/05/12 23:36:29;;;;;;;9.98;1.40;;;15.80;52.40;;;;;;5041846;28;20041;-67
2022/05/12 23:38:55;;;;;;;8.05;1.30;;;15.70;51.90;;;;;;5040885;28;20025;-68
2022/05/12 23:41:21;;;;;;;11.32;1.50;;;15.70;51.90;;;;;;5047354;28;20041;-68
2022/05/12 23:43:47;;;;;;;10.55;1.35;;;15.50;51.90;;;;;;5041298;28;20029;-68
2022/05/12 23:46:13;;;;;;;8.07;1.33;;;15.50;52.00;;;;;;5033813;28;20919;-68
2022/05/12 23:48:39;;;;;;;9.60;1.48;;;15.40;52.10;;;;;;5034021;28;20057;-67
2022/05/12 23:51:05;;;;;;;9.07;1.38;;;15.40;52.20;;;;;;5034055;28;20476;-68
2022/05/12 23:53:32;;;;;;;8.32;1.60;;;15.40;52.80;;;;;;5039917;28;20066;-68
2022/05/12 23:55:57;;;;;;;8.88;1.60;;;15.30;53.10;;;;;;5048572;28;20032;-68
2022/05/12 23:58:23;;;;;;;11.32;1.58;;;15.40;53.50;;;;;;5042144;28;20029;-68
